Arkansaw, WI

1:22 AM CST on February 28, 2015 (GMT -0600)
SIGHT-SEA-ER II | Change Station
CLOSE
Current Station
Personal Weather Station
Location: Lake City, MN
Elevation: 728 ft
Nearby Weather Stations

Elev 728 ft 44.47 °N, 92.30 °W | Updated 11 minutes ago

Clear
Clear
0.1 °F
Feels Like 0 °F
N
1.0
Wind Variable Wind from SE
Gusts 3.0 mph

Today
High -- | Low -- °F
--% Chance of Precip.
Yesterday
High -- | Low -- °F
Precip. -- in
6:47 AM 5:54 PM
Waxing Gibbous, 75% visible
Pressure 30.56 in
Visibility 10.0 miles
Clouds Clear
Windchill 0 °F
Dew Point -5 °F
Humidity 79%
Rainfall 0.00 in
Snow Depth Not available.
UV 0 out of 12
Pollen .40 out of 12
Air Quality Not available.
Flu Activity Not available.
METAR KRGK 280711Z AUTO 00000KT 10SM CLR M21/M24 A3056 RMK AO2

More Conditions Fewer Conditions

Pressure 30.56 in
Visibility 10.0 miles
Clouds Clear
Windchill 0 °F
Dew Point -5 °F
Humidity 79%
Rainfall 0.00 in
Snow Depth Not available.
UV 0 out of 12
Pollen .40 out of 12
Air Quality Not available.
Flu Activity Not available.
METAR KRGK 280711Z AUTO 00000KT 10SM CLR M21/M24 A3056 RMK AO2

More Conditions Fewer Conditions

10-Day Weather Forecast

Almanac

Astronomy

Feb. 28, 2015 Rise Set
Actual Time
Civil Twilight
Nautical Twilight
Astronomical Twilight
Moon
Length of Visible Light
Length of Day
Tomorrow will be .
, % of the Moon is Illuminated

Today's Extremes

State Highs State Lows

Community

WunderPhotos

Upload Photos

1,800,979 photos uploaded!

WunderBlogs® & News

Nearby

Air Quality

  Air Quality AQ Index Pollutant
Not available.

Snow Depth

Station Depth Elevation

Earthquake Activity

City Distance Mag. Time & Date
Minimum magnitude displayed is 2.5.

Coastal Water Temperatures

Place Temperature

Nearby Weather Stations